createdAt,value
2022-09-15T00:01:41.150Z,81.58
2022-09-15T00:04:10.081Z,81.98
2022-09-15T00:06:38.286Z,81.38
2022-09-15T00:09:06.682Z,81.71
2022-09-15T00:11:37.542Z,81.16
2022-09-15T00:14:08.091Z,81.79
2022-09-15T00:16:36.855Z,82.04
2022-09-15T00:19:07.558Z,82.16
2022-09-15T00:21:38.233Z,82.16
2022-09-15T00:24:07.184Z,82.56
2022-09-15T00:26:35.146Z,81.88
2022-09-15T00:29:03.594Z,82.07
2022-09-15T00:31:36.114Z,82.17
2022-09-15T00:34:05.796Z,82.41
2022-09-15T00:36:34.469Z,82.23
2022-09-15T00:39:03.714Z,82.12
2022-09-15T00:41:32.010Z,82.42
2022-09-15T00:44:17.041Z,82.13
2022-09-15T00:46:58.917Z,81.87
2022-09-15T00:49:40.309Z,82.45
2022-09-15T00:52:11.165Z,82.52
2022-09-15T00:54:42.561Z,82.73
2022-09-15T00:57:20.909Z,82.27
2022-09-15T00:59:50.238Z,82.27
2022-09-15T01:02:27.730Z,82.04
2022-09-15T01:04:59.061Z,81.88
2022-09-15T01:07:35.249Z,82.31
2022-09-15T01:10:12.936Z,82.24
2022-09-15T01:12:42.264Z,82.78
2022-09-15T01:15:10.315Z,82.35
2022-09-15T01:17:52.763Z,82.11
2022-09-15T01:20:48.335Z,82.48
2022-09-15T01:23:41.167Z,81.82
2022-09-15T01:26:25.358Z,82.41
2022-09-15T01:29:35.322Z,82.74
2022-09-15T01:32:47.973Z,82.22
2022-09-15T01:35:29.609Z,82.35
2022-09-15T01:38:05.874Z,82.34
2022-09-15T01:40:40.380Z,82.82
2022-09-15T01:43:10.894Z,82.53
2022-09-15T01:45:43.109Z,82.61
2022-09-15T01:48:13.037Z,82.74
2022-09-15T01:50:48.055Z,83.05
2022-09-15T01:53:21.891Z,82.65
2022-09-15T01:56:01.692Z,82.58
2022-09-15T01:58:31.136Z,82.67
2022-09-15T02:01:06.950Z,82.70
2022-09-15T02:03:52.555Z,82.74
2022-09-15T02:06:55.231Z,83.09
2022-09-15T02:09:32.207Z,82.69
2022-09-15T02:12:20.210Z,83.17
2022-09-15T02:15:04.125Z,82.91
2022-09-15T02:17:39.500Z,83.08
2022-09-15T02:20:27.092Z,83.25
2022-09-15T02:23:01.460Z,82.46
2022-09-15T02:25:34.570Z,82.62
2022-09-15T02:28:08.647Z,82.83
2022-09-15T02:30:43.775Z,82.99
2022-09-15T02:33:20.526Z,82.59
2022-09-15T02:35:48.610Z,82.39
2022-09-15T02:38:16.707Z,82.73
2022-09-15T02:40:45.843Z,83.10
2022-09-15T02:43:16.531Z,82.75
2022-09-15T02:45:45.271Z,82.57
2022-09-15T02:48:14.685Z,82.88
2022-09-15T02:50:42.900Z,82.61
2022-09-15T02:53:10.913Z,82.92
2022-09-15T02:55:40.775Z,82.11
2022-09-15T02:58:08.496Z,82.45
2022-09-15T03:00:39.393Z,82.28
2022-09-15T03:03:07.529Z,82.03
2022-09-15T03:05:35.464Z,82.45
2022-09-15T03:08:03.582Z,82.26
2022-09-15T03:10:34.324Z,81.56
2022-09-15T03:13:02.305Z,81.77
2022-09-15T03:15:30.409Z,81.68
2022-09-15T03:17:59.409Z,81.89
2022-09-15T03:20:31.089Z,81.68
2022-09-15T03:22:59.302Z,81.42
2022-09-15T03:25:27.895Z,81.63
2022-09-15T03:27:55.930Z,81.16
2022-09-15T03:30:23.926Z,81.46
2022-09-15T03:32:52.195Z,81.11
2022-09-15T03:35:20.174Z,81.38
2022-09-15T03:37:48.108Z,81.35
2022-09-15T03:40:17.064Z,80.73
2022-09-15T03:42:45.119Z,80.76
2022-09-15T03:45:13.115Z,80.49
2022-09-15T03:47:41.230Z,80.76
2022-09-15T03:50:09.561Z,80.59
2022-09-15T03:52:37.660Z,80.54
2022-09-15T03:55:06.130Z,79.79
2022-09-15T03:57:34.064Z,79.62
2022-09-15T04:00:02.053Z,79.42
2022-09-15T04:02:33.796Z,79.03
2022-09-15T04:05:01.793Z,78.49
2022-09-15T04:07:32.027Z,77.87
2022-09-15T04:10:01.814Z,77.78
2022-09-15T04:12:33.313Z,77.41
2022-09-15T04:15:01.670Z,77.01
2022-09-15T04:17:32.033Z,77.26
2022-09-15T04:20:00.034Z,77.17
2022-09-15T04:22:32.690Z,76.55
2022-09-15T04:25:01.854Z,76.48
2022-09-15T04:27:35.067Z,75.86
2022-09-15T04:30:03.167Z,75.51
2022-09-15T04:32:32.398Z,75.22
2022-09-15T04:35:00.330Z,74.53
2022-09-15T04:37:47.615Z,73.98
2022-09-15T04:40:15.782Z,73.69
2022-09-15T04:42:43.859Z,72.71
2022-09-15T04:45:12.413Z,72.02
2022-09-15T04:47:40.377Z,71.03
2022-09-15T04:50:08.581Z,70.18
2022-09-15T04:52:39.969Z,69.03
2022-09-15T04:55:08.253Z,67.86
2022-09-15T04:57:36.280Z,67.39
2022-09-15T05:00:10.878Z,66.35
2022-09-15T05:02:38.860Z,64.66
2022-09-15T05:05:07.182Z,64.12
2022-09-15T05:07:37.901Z,63.26
2022-09-15T05:10:06.363Z,62.77
2022-09-15T05:12:34.349Z,62.33
2022-09-15T05:15:02.390Z,61.51
2022-09-15T05:17:33.121Z,61.00
2022-09-15T05:20:01.977Z,60.09
2022-09-15T05:22:37.210Z,59.64
2022-09-15T05:25:07.860Z,59.42
2022-09-15T05:27:35.875Z,59.32
2022-09-15T05:30:34.996Z,59.05
2022-09-15T05:32:52.170Z,58.78
2022-09-15T05:35:22.164Z,58.51
2022-09-15T05:37:49.996Z,58.24
2022-09-15T05:40:18.365Z,58.65
2022-09-15T05:42:48.987Z,57.81
2022-09-15T05:45:17.280Z,58.04
2022-09-15T05:47:45.311Z,57.45
2022-09-15T05:50:14.400Z,57.29
2022-09-15T05:52:42.543Z,57.46
2022-09-15T05:55:10.698Z,57.19
2022-09-15T05:57:39.836Z,56.92
2022-09-15T06:00:08.461Z,56.91
2022-09-15T06:02:36.422Z,56.59
2022-09-15T06:05:04.642Z,56.40
2022-09-15T06:07:32.657Z,56.04
2022-09-15T06:10:00.812Z,55.76
2022-09-15T06:12:32.045Z,55.11
2022-09-15T06:15:00.480Z,55.34
2022-09-15T06:17:29.618Z,55.22
2022-09-15T06:20:17.864Z,55.15
2022-09-15T06:22:47.040Z,54.83
2022-09-15T06:25:15.489Z,54.00
2022-09-15T06:27:43.652Z,53.30
2022-09-15T06:30:12.277Z,53.49
2022-09-15T06:32:40.185Z,53.31
2022-09-15T06:35:09.463Z,52.35
2022-09-15T06:37:37.449Z,52.80
2022-09-15T06:40:05.795Z,52.52
2022-09-15T06:42:33.978Z,52.41
2022-09-15T06:45:02.018Z,52.49
2022-09-15T06:47:34.430Z,52.77
2022-09-15T06:50:02.620Z,52.38
2022-09-15T06:52:31.834Z,52.27
2022-09-15T06:54:59.836Z,49.39
2022-09-15T06:57:28.142Z,48.00
2022-09-15T06:59:56.019Z,47.30
2022-09-15T07:02:24.123Z,46.59
2022-09-15T07:04:52.364Z,46.30
2022-09-15T07:07:20.981Z,45.92
2022-09-15T07:10:08.369Z,45.47
2022-09-15T07:12:36.314Z,46.20
2022-09-15T07:15:04.513Z,46.80
2022-09-15T07:17:32.762Z,47.66
2022-09-15T07:20:01.741Z,47.84
2022-09-15T07:22:32.233Z,48.28
2022-09-15T07:25:01.494Z,48.51
2022-09-15T07:27:32.500Z,49.37
2022-09-15T07:30:00.598Z,49.75
2022-09-15T07:32:28.760Z,50.34
2022-09-15T07:34:58.501Z,49.65
2022-09-15T07:37:26.487Z,49.22
2022-09-15T07:39:56.980Z,48.98
2022-09-15T07:42:26.597Z,48.92
2022-09-15T07:44:54.556Z,48.86
2022-09-15T07:47:22.673Z,48.88
2022-09-15T07:49:50.964Z,49.15
2022-09-15T07:52:18.892Z,49.59
2022-09-15T07:54:47.903Z,50.27
2022-09-15T07:57:15.887Z,50.80
2022-09-15T07:59:43.833Z,51.83
2022-09-15T08:02:20.968Z,52.31
2022-09-15T08:04:49.105Z,52.33
2022-09-15T08:07:17.161Z,52.53
2022-09-15T08:09:45.533Z,53.06
2022-09-15T08:12:13.529Z,53.96
2022-09-15T08:14:41.552Z,54.21
2022-09-15T08:17:11.630Z,54.24
2022-09-15T08:19:39.935Z,54.63
2022-09-15T08:22:08.043Z,55.00
2022-09-15T08:24:39.025Z,55.66
2022-09-15T08:27:07.424Z,55.82
2022-09-15T08:29:35.420Z,55.97
2022-09-15T08:32:04.823Z,56.50
2022-09-15T08:34:32.860Z,56.92
2022-09-15T08:37:00.848Z,57.28
2022-09-15T08:39:31.253Z,57.64
2022-09-15T08:42:02.839Z,58.22
2022-09-15T08:44:45.811Z,58.94
2022-09-15T08:47:37.609Z,59.98
2022-09-15T08:50:36.250Z,60.06
2022-09-15T08:53:13.636Z,60.35
2022-09-15T08:55:54.906Z,60.54
2022-09-15T08:58:29.444Z,61.01
2022-09-15T09:01:05.889Z,60.93
2022-09-15T09:03:49.198Z,61.58
2022-09-15T09:06:29.601Z,61.53
2022-09-15T09:09:10.751Z,61.57
2022-09-15T09:11:54.496Z,62.01
2022-09-15T09:14:52.485Z,62.27
2022-09-15T09:17:37.187Z,61.98
2022-09-15T09:20:22.774Z,61.96
2022-09-15T09:22:55.188Z,61.59
2022-09-15T09:25:28.120Z,61.90
2022-09-15T09:28:03.018Z,62.23
2022-09-15T09:30:34.034Z,62.66
2022-09-15T09:33:38.678Z,62.45
2022-09-15T09:36:09.637Z,62.62
2022-09-15T09:38:43.846Z,62.71
2022-09-15T09:41:28.712Z,62.82
2022-09-15T09:43:57.164Z,63.13
2022-09-15T09:46:25.249Z,63.08
2022-09-15T09:49:24.533Z,63.36
2022-09-15T09:52:00.533Z,63.64
2022-09-15T09:54:35.902Z,63.42
2022-09-15T09:57:30.358Z,64.31
2022-09-15T09:59:58.842Z,64.08
2022-09-15T10:02:28.145Z,64.59
2022-09-15T10:05:09.116Z,64.54
2022-09-15T10:07:44.639Z,64.13
2022-09-15T10:10:26.018Z,63.58
2022-09-15T10:12:57.664Z,63.17
2022-09-15T10:15:34.087Z,63.14
2022-09-15T10:18:22.698Z,62.81
2022-09-15T10:20:53.443Z,62.40
2022-09-15T10:23:24.624Z,62.22
2022-09-15T10:26:00.673Z,62.42
2022-09-15T10:28:29.568Z,62.41
2022-09-15T10:31:14.957Z,62.41
2022-09-15T10:33:48.295Z,62.23
2022-09-15T10:36:24.490Z,61.94
2022-09-15T10:38:55.439Z,62.02
2022-09-15T10:41:37.094Z,62.35
2022-09-15T10:44:33.764Z,62.19
2022-09-15T10:47:37.698Z,61.87
2022-09-15T10:50:17.923Z,61.47
2022-09-15T10:52:57.859Z,61.26
2022-09-15T10:55:52.748Z,61.13
2022-09-15T10:58:52.116Z,61.62
2022-09-15T11:01:32.654Z,61.28
2022-09-15T11:04:28.924Z,61.11
2022-09-15T11:07:23.951Z,61.29
2022-09-15T11:10:03.962Z,60.99
2022-09-15T11:12:46.653Z,61.11
2022-09-15T11:15:29.419Z,61.83
2022-09-15T11:18:20.851Z,62.41
2022-09-15T11:21:34.880Z,63.09
2022-09-15T11:24:27.717Z,63.03
2022-09-15T11:27:15.653Z,63.12
2022-09-15T11:30:01.823Z,63.82
2022-09-15T11:32:44.865Z,63.94
2022-09-15T11:35:43.114Z,64.53
2022-09-15T11:38:16.243Z,64.83
2022-09-15T11:41:02.702Z,64.93
2022-09-15T11:43:40.347Z,64.96
2022-09-15T11:46:14.477Z,65.06
2022-09-15T11:48:53.308Z,65.25
2022-09-15T11:51:25.502Z,65.18
2022-09-15T11:54:04.562Z,65.45
2022-09-15T11:56:44.763Z,66.18
2022-09-15T11:59:37.471Z,66.43
2022-09-15T12:02:44.699Z,66.69
2022-09-15T12:05:17.437Z,66.66
2022-09-15T12:07:56.549Z,66.88
2022-09-15T12:10:35.396Z,67.12
2022-09-15T12:13:04.320Z,67.47
2022-09-15T12:15:33.137Z,67.37
2022-09-15T12:18:41.002Z,67.91
2022-09-15T12:21:17.416Z,68.04
2022-09-15T12:24:12.757Z,68.00
2022-09-15T12:26:43.860Z,68.70
2022-09-15T12:30:02.912Z,68.64
2022-09-15T12:32:49.643Z,68.80
2022-09-15T12:35:22.233Z,69.19
2022-09-15T12:37:59.071Z,69.49
2022-09-15T12:40:40.089Z,69.81
2022-09-15T12:43:14.260Z,69.99
2022-09-15T12:45:45.303Z,70.12
2022-09-15T12:48:23.439Z,70.38
2022-09-15T12:50:59.495Z,70.51
2022-09-15T12:53:40.847Z,70.60
2022-09-15T12:56:25.323Z,71.18
2022-09-15T12:58:57.125Z,70.94
2022-09-15T13:01:25.178Z,71.26
2022-09-15T13:03:58.516Z,71.44
2022-09-15T13:06:27.715Z,71.71
2022-09-15T13:09:06.222Z,72.12
2022-09-15T13:11:55.608Z,72.22
2022-09-15T13:14:42.615Z,72.07
2022-09-15T13:17:26.899Z,72.28
2022-09-15T13:20:00.667Z,72.18
2022-09-15T13:22:38.248Z,72.27
2022-09-15T13:25:14.324Z,72.62
2022-09-15T13:27:56.138Z,72.86
2022-09-15T13:30:41.617Z,72.85
2022-09-15T13:38:03.773Z,73.11
2022-09-15T13:40:01.630Z,73.23
2022-09-15T13:43:03.992Z,73.70
2022-09-15T13:45:32.119Z,73.31
2022-09-15T13:48:00.141Z,73.50
2022-09-15T13:50:34.446Z,73.77
2022-09-15T13:53:27.974Z,73.83
2022-09-15T13:55:56.595Z,74.12
2022-09-15T14:01:16.834Z,74.04
2022-09-15T14:03:50.637Z,74.35
2022-09-15T14:06:34.283Z,74.13
2022-09-15T14:09:08.522Z,74.19
2022-09-15T14:11:40.513Z,74.35
2022-09-15T14:14:22.383Z,74.97
2022-09-15T14:16:51.770Z,74.70
2022-09-15T14:19:35.353Z,74.83
2022-09-15T14:22:35.099Z,75.11
2022-09-15T14:25:12.409Z,75.04
2022-09-15T14:27:56.839Z,75.14
2022-09-15T14:30:31.785Z,75.26
2022-09-15T14:33:04.257Z,75.57
2022-09-15T14:35:37.671Z,75.60
2022-09-15T14:38:06.098Z,75.77
2022-09-15T14:40:40.120Z,75.68
2022-09-15T14:43:28.039Z,75.95
2022-09-15T14:46:05.157Z,76.09
2022-09-15T14:48:36.801Z,76.20
2022-09-15T14:54:28.958Z,76.25
2022-09-15T14:57:04.768Z,76.47
2022-09-15T14:59:57.894Z,76.24
2022-09-15T15:02:58.101Z,76.94
2022-09-15T15:05:34.845Z,76.33
2022-09-15T15:08:07.170Z,76.82
2022-09-15T15:10:38.764Z,76.48
2022-09-15T15:13:16.186Z,76.70
2022-09-15T15:15:45.672Z,77.05
2022-09-15T15:18:32.405Z,76.80
2022-09-15T15:21:00.649Z,76.97
2022-09-15T15:23:28.853Z,76.68
2022-09-15T15:26:40.704Z,77.01
2022-09-15T15:29:30.004Z,77.33
2022-09-15T15:32:14.078Z,77.11
2022-09-15T15:34:50.462Z,76.97
2022-09-15T15:37:34.913Z,77.47
2022-09-15T15:40:08.087Z,77.15
2022-09-15T15:45:25.808Z,77.34
2022-09-15T15:47:53.875Z,77.61
2022-09-15T15:50:25.128Z,77.22
2022-09-15T15:52:54.036Z,77.35
2022-09-15T15:55:25.208Z,77.58
2022-09-15T15:57:56.747Z,77.79
2022-09-15T16:00:31.362Z,77.88
2022-09-15T16:02:59.337Z,77.40
2022-09-15T16:05:29.864Z,77.59
2022-09-15T16:08:03.425Z,77.74
2022-09-15T16:10:39.700Z,77.63
2022-09-15T16:13:08.292Z,77.63
2022-09-15T16:15:36.314Z,77.87
2022-09-15T16:18:06.689Z,78.12
2022-09-15T16:20:34.916Z,77.95
2022-09-15T16:23:03.639Z,77.73
2022-09-15T16:25:42.239Z,77.98
2022-09-15T16:28:10.287Z,77.99
2022-09-15T16:30:38.371Z,78.10
2022-09-15T16:33:08.035Z,78.22
2022-09-15T16:36:08.935Z,77.83
2022-09-15T16:38:40.031Z,77.49
2022-09-15T16:41:19.758Z,77.96
2022-09-15T16:43:48.250Z,77.92
2022-09-15T16:46:17.954Z,77.55
2022-09-15T16:48:59.183Z,77.51
2022-09-15T16:51:31.432Z,77.62
2022-09-15T16:54:00.169Z,77.79
2022-09-15T16:56:30.463Z,77.91
2022-09-15T16:59:00.583Z,77.63
2022-09-15T17:01:29.190Z,78.22
2022-09-15T17:03:57.309Z,77.66
2022-09-15T17:06:25.988Z,77.47
2022-09-15T17:08:54.269Z,77.96
2022-09-15T17:11:25.967Z,77.70
2022-09-15T17:13:54.334Z,78.05
2022-09-15T17:16:22.642Z,77.25
2022-09-15T17:18:51.671Z,77.50
2022-09-15T17:21:20.326Z,77.76
2022-09-15T17:23:50.444Z,77.14
2022-09-15T17:26:21.599Z,77.11
2022-09-15T17:28:50.017Z,77.90
2022-09-15T17:31:24.253Z,77.73
2022-09-15T17:33:53.133Z,77.85
2022-09-15T17:36:21.337Z,77.91
2022-09-15T17:38:49.432Z,78.11
2022-09-15T17:41:20.209Z,77.82
2022-09-15T17:43:48.377Z,77.88
2022-09-15T17:46:16.648Z,77.82
2022-09-15T17:48:44.940Z,77.61
2022-09-15T17:51:20.050Z,77.38
2022-09-15T17:53:49.896Z,77.17
2022-09-15T17:56:17.643Z,77.84
2022-09-15T17:58:45.632Z,77.08
2022-09-15T18:01:15.806Z,77.69
2022-09-15T18:03:45.575Z,77.95
2022-09-15T18:06:13.930Z,77.46
2022-09-15T18:08:42.216Z,77.49
2022-09-15T18:11:15.046Z,77.13
2022-09-15T18:13:43.755Z,77.83
2022-09-15T18:16:15.016Z,77.83
2022-09-15T18:18:43.623Z,78.13
2022-09-15T18:21:27.075Z,77.84
2022-09-15T18:23:56.821Z,77.80
2022-09-15T18:26:26.606Z,77.90
2022-09-15T18:28:55.458Z,77.65
2022-09-15T18:31:23.525Z,77.56
2022-09-15T18:33:51.561Z,77.73
2022-09-15T18:36:21.268Z,77.69
2022-09-15T18:38:49.228Z,77.85
2022-09-15T18:41:17.238Z,77.39
2022-09-15T18:43:49.574Z,77.75
2022-09-15T18:46:18.660Z,78.00
2022-09-15T18:48:47.245Z,77.79
2022-09-15T18:51:23.975Z,78.33
2022-09-15T18:53:58.059Z,77.66
2022-09-15T18:56:26.266Z,77.21
2022-09-15T18:59:34.496Z,77.26
2022-09-15T19:02:02.691Z,77.63
2022-09-15T19:04:33.342Z,77.31
2022-09-15T19:07:03.073Z,77.40
2022-09-15T19:09:31.584Z,77.86
2022-09-15T19:11:59.560Z,77.83
2022-09-15T19:14:32.070Z,77.77
2022-09-15T19:17:00.396Z,77.70
2022-09-15T19:19:28.423Z,77.60
2022-09-15T19:21:59.028Z,77.69
2022-09-15T19:24:32.857Z,78.10
2022-09-15T19:27:06.569Z,78.28
2022-09-15T19:30:35.344Z,77.75
2022-09-15T19:33:03.778Z,77.61
2022-09-15T19:35:31.794Z,77.56
2022-09-15T19:38:00.935Z,77.61
2022-09-15T19:40:29.063Z,77.58
2022-09-15T19:42:57.238Z,77.63
2022-09-15T19:45:27.073Z,77.89
2022-09-15T19:47:55.077Z,77.54
2022-09-15T19:50:23.120Z,77.92
2022-09-15T19:52:54.234Z,77.86
2022-09-15T19:55:24.705Z,78.20
2022-09-15T19:57:52.690Z,78.26
2022-09-15T20:00:20.828Z,77.82
2022-09-15T20:02:49.239Z,77.76
2022-09-15T20:05:17.286Z,78.17
2022-09-15T20:07:47.645Z,78.31
2022-09-15T20:10:17.121Z,78.19
2022-09-15T20:12:45.131Z,78.07
2022-09-15T20:15:14.112Z,78.27
2022-09-15T20:17:43.106Z,77.94
2022-09-15T20:20:12.480Z,78.42
2022-09-15T20:22:42.333Z,77.67
2022-09-15T20:25:10.307Z,78.10
2022-09-15T20:27:39.025Z,78.08
2022-09-15T20:30:07.716Z,78.17
2022-09-15T20:32:35.922Z,78.23
2022-09-15T20:35:03.900Z,78.07
2022-09-15T20:37:37.279Z,78.41
2022-09-15T20:40:08.949Z,78.38
2022-09-15T20:42:37.535Z,78.67
2022-09-15T20:45:06.101Z,78.53
2022-09-15T20:47:34.541Z,78.34
2022-09-15T20:50:02.491Z,78.33
2022-09-15T20:52:37.396Z,78.55
2022-09-15T20:55:06.707Z,78.51
2022-09-15T20:57:34.815Z,78.45
2022-09-15T21:00:06.976Z,78.75
2022-09-15T21:02:34.741Z,78.44
2022-09-15T21:05:02.699Z,78.81
2022-09-15T21:07:33.058Z,78.78
2022-09-15T21:10:00.984Z,78.49
2022-09-15T21:12:29.069Z,79.01
2022-09-15T21:14:58.535Z,78.76
2022-09-15T21:17:26.514Z,78.35
2022-09-15T21:19:54.451Z,79.20
2022-09-15T21:22:23.713Z,78.85
2022-09-15T21:24:51.852Z,78.78
2022-09-15T21:27:29.878Z,79.22
2022-09-15T21:29:58.089Z,78.54
2022-09-15T21:32:26.123Z,79.03
2022-09-15T21:34:59.168Z,78.97
2022-09-15T21:37:28.656Z,78.86
2022-09-15T21:39:57.532Z,78.90
2022-09-15T21:42:27.571Z,79.08
2022-09-15T21:44:56.306Z,78.78
2022-09-15T21:47:24.550Z,78.89
2022-09-15T21:49:54.121Z,79.08
2022-09-15T21:52:22.257Z,79.15
2022-09-15T21:54:50.239Z,78.99
2022-09-15T21:57:18.619Z,79.10
2022-09-15T21:59:46.602Z,79.46
2022-09-15T22:02:14.544Z,78.78
2022-09-15T22:04:42.696Z,78.73
2022-09-15T22:07:10.775Z,79.19
2022-09-15T22:09:39.572Z,79.36
2022-09-15T22:12:09.088Z,79.20
2022-09-15T22:14:37.052Z,79.13
2022-09-15T22:17:05.057Z,79.05
2022-09-15T22:19:35.776Z,78.95
2022-09-15T22:22:03.822Z,79.04
2022-09-15T22:24:31.820Z,78.87
2022-09-15T22:27:00.808Z,78.89
2022-09-15T22:29:28.790Z,78.64
2022-09-15T22:31:56.821Z,78.76
2022-09-15T22:34:25.958Z,78.88
2022-09-15T22:36:53.945Z,79.11
2022-09-15T22:39:27.024Z,79.16
2022-09-15T22:42:08.011Z,78.71
2022-09-15T22:44:36.062Z,78.84
2022-09-15T22:47:06.873Z,79.25
2022-09-15T22:49:34.985Z,78.76
2022-09-15T22:52:03.201Z,79.13
2022-09-15T22:57:18.046Z,78.98
2022-09-15T22:59:45.767Z,79.15
2022-09-15T23:02:13.721Z,78.92
2022-09-15T23:04:41.900Z,79.13
2022-09-15T23:07:10.055Z,78.90
2022-09-15T23:09:38.041Z,79.25
2022-09-15T23:12:12.353Z,78.32
2022-09-15T23:14:40.329Z,79.01
2022-09-15T23:17:08.257Z,79.21
2022-09-15T23:19:36.420Z,79.01
2022-09-15T23:22:04.358Z,79.46
2022-09-15T23:24:33.661Z,79.14
2022-09-15T23:27:02.744Z,78.93
2022-09-15T23:29:31.752Z,78.93
2022-09-15T23:31:59.775Z,79.20
2022-09-15T23:34:30.005Z,79.01
2022-09-15T23:36:57.980Z,78.76
2022-09-15T23:39:25.953Z,78.59
2022-09-15T23:41:54.916Z,79.55
2022-09-15T23:44:22.904Z,79.15
2022-09-15T23:46:50.997Z,79.36
2022-09-15T23:49:37.345Z,79.33
2022-09-15T23:52:05.275Z,79.26
2022-09-15T23:54:33.248Z,79.52
2022-09-15T23:57:02.141Z,78.98
2022-09-15T23:59:30.116Z,79.12
